sensor_id;sensor_type;location;lat;lon;timestamp;pressure;altitude;pressure_sealevel;temperature;humidity
83512;BME280;73446;0.000;0.000;2023-11-21T00:02:03;98096.00;;;20.71;39.42
83512;BME280;73446;0.000;0.000;2023-11-21T00:04:48;98101.63;;;20.70;39.46
83512;BME280;73446;0.000;0.000;2023-11-21T00:07:32;98093.34;;;20.71;39.27
83512;BME280;73446;0.000;0.000;2023-11-21T00:10:16;98094.41;;;20.70;39.32
83512;BME280;73446;0.000;0.000;2023-11-21T00:13:00;98093.63;;;20.70;39.13
83512;BME280;73446;0.000;0.000;2023-11-21T00:15:45;98094.72;;;20.69;39.09
83512;BME280;73446;0.000;0.000;2023-11-21T00:18:29;98089.38;;;20.69;39.40
83512;BME280;73446;0.000;0.000;2023-11-21T00:21:14;98092.03;;;20.69;39.14
83512;BME280;73446;0.000;0.000;2023-11-21T00:23:58;98083.25;;;20.68;39.33
83512;BME280;73446;0.000;0.000;2023-11-21T00:26:41;98080.06;;;20.66;39.13
83512;BME280;73446;0.000;0.000;2023-11-21T00:29:25;98094.22;;;20.67;39.20
83512;BME280;73446;0.000;0.000;2023-11-21T00:32:09;98087.78;;;20.68;39.32
83512;BME280;73446;0.000;0.000;2023-11-21T00:34:54;98087.56;;;20.64;39.14
83512;BME280;73446;0.000;0.000;2023-11-21T00:37:38;98095.28;;;20.66;39.27
83512;BME280;73446;0.000;0.000;2023-11-21T00:40:22;98085.41;;;20.66;39.01
83512;BME280;73446;0.000;0.000;2023-11-21T00:43:06;98089.97;;;20.66;39.06
83512;BME280;73446;0.000;0.000;2023-11-21T00:45:50;98093.72;;;20.65;39.28
83512;BME280;73446;0.000;0.000;2023-11-21T00:48:34;98088.38;;;20.65;39.23
83512;BME280;73446;0.000;0.000;2023-11-21T00:51:18;98091.34;;;20.63;39.11
83512;BME280;73446;0.000;0.000;2023-11-21T00:54:03;98088.66;;;20.63;39.26
83512;BME280;73446;0.000;0.000;2023-11-21T00:56:47;98095.88;;;20.63;39.27
83512;BME280;73446;0.000;0.000;2023-11-21T00:59:31;98088.19;;;20.61;39.16
83512;BME280;73446;0.000;0.000;2023-11-21T01:02:16;98090.06;;;20.60;39.05
83512;BME280;73446;0.000;0.000;2023-11-21T01:05:02;98095.88;;;20.63;39.10
83512;BME280;73446;0.000;0.000;2023-11-21T01:07:47;98089.75;;;20.62;39.00
83512;BME280;73446;0.000;0.000;2023-11-21T01:10:31;98090.53;;;20.63;39.23
83512;BME280;73446;0.000;0.000;2023-11-21T01:13:15;98087.41;;;20.60;39.21
83512;BME280;73446;0.000;0.000;2023-11-21T01:16:00;98097.28;;;20.60;39.13
83512;BME280;73446;0.000;0.000;2023-11-21T01:18:44;98091.94;;;20.60;39.18
83512;BME280;73446;0.000;0.000;2023-11-21T01:21:28;98089.28;;;20.60;39.16
83512;BME280;73446;0.000;0.000;2023-11-21T01:24:13;98085.81;;;20.59;39.27
83512;BME280;73446;0.000;0.000;2023-11-21T01:26:56;98078.88;;;20.58;39.30
83512;BME280;73446;0.000;0.000;2023-11-21T01:29:40;98087.69;;;20.59;39.15
83512;BME280;73446;0.000;0.000;2023-11-21T01:32:24;98094.91;;;20.58;39.18
83512;BME280;73446;0.000;0.000;2023-11-21T01:35:09;98092.53;;;20.57;38.95
83512;BME280;73446;0.000;0.000;2023-11-21T01:37:54;98092.81;;;20.55;39.04
83512;BME280;73446;0.000;0.000;2023-11-21T01:40:37;98094.41;;;20.56;39.05
83512;BME280;73446;0.000;0.000;2023-11-21T01:43:22;98087.19;;;20.57;39.36
83512;BME280;73446;0.000;0.000;2023-11-21T01:46:06;98095.50;;;20.55;39.24
83512;BME280;73446;0.000;0.000;2023-11-21T01:48:50;98098.94;;;20.56;39.00
83512;BME280;73446;0.000;0.000;2023-11-21T01:51:35;98095.50;;;20.55;39.13
83512;BME280;73446;0.000;0.000;2023-11-21T01:54:20;98101.91;;;20.54;39.21
83512;BME280;73446;0.000;0.000;2023-11-21T01:57:05;98093.09;;;20.54;39.25
83512;BME280;73446;0.000;0.000;2023-11-21T01:59:53;98085.38;;;20.52;39.18
83512;BME280;73446;0.000;0.000;2023-11-21T02:02:47;98097.66;;;20.53;39.25
83512;BME280;73446;0.000;0.000;2023-11-21T02:05:31;98093.41;;;20.52;39.25
83512;BME280;73446;0.000;0.000;2023-11-21T02:08:15;98095.78;;;20.54;39.23
83512;BME280;73446;0.000;0.000;2023-11-21T02:10:59;98092.31;;;20.53;38.96
83512;BME280;73446;0.000;0.000;2023-11-21T02:13:43;98091.53;;;20.53;39.25
83512;BME280;73446;0.000;0.000;2023-11-21T02:16:29;98114.47;;;20.54;38.93
83512;BME280;73446;0.000;0.000;2023-11-21T02:19:18;98111.50;;;20.55;39.10
83512;BME280;73446;0.000;0.000;2023-11-21T02:22:13;98106.75;;;20.52;39.19
83512;BME280;73446;0.000;0.000;2023-11-21T02:25:00;98099.81;;;20.51;39.25
83512;BME280;73446;0.000;0.000;2023-11-21T02:27:44;98109.41;;;20.52;39.13
83512;BME280;73446;0.000;0.000;2023-11-21T02:30:32;98082.72;;;20.52;39.27
83512;BME280;73446;0.000;0.000;2023-11-21T02:33:15;98094.47;;;20.51;39.21
83512;BME280;73446;0.000;0.000;2023-11-21T02:36:00;98088.34;;;20.51;39.38
83512;BME280;73446;0.000;0.000;2023-11-21T02:38:44;98097.44;;;20.50;39.24
83512;BME280;73446;0.000;0.000;2023-11-21T02:41:29;98099.81;;;20.51;39.33
83512;BME280;73446;0.000;0.000;2023-11-21T02:44:13;98101.19;;;20.49;39.08
83512;BME280;73446;0.000;0.000;2023-11-21T02:46:57;98106.53;;;20.49;39.07
83512;BME280;73446;0.000;0.000;2023-11-21T02:49:41;98102.00;;;20.49;39.37
83512;BME280;73446;0.000;0.000;2023-11-21T02:52:25;98087.84;;;20.49;38.91
83512;BME280;73446;0.000;0.000;2023-11-21T02:55:09;98100.41;;;20.48;38.92
83512;BME280;73446;0.000;0.000;2023-11-21T02:57:54;98095.06;;;20.48;39.02
83512;BME280;73446;0.000;0.000;2023-11-21T03:00:39;98082.50;;;20.49;39.19
83512;BME280;73446;0.000;0.000;2023-11-21T03:03:25;98082.00;;;20.47;39.35
83512;BME280;73446;0.000;0.000;2023-11-21T03:06:10;98094.28;;;20.48;39.03
83512;BME280;73446;0.000;0.000;2023-11-21T03:08:53;98082.00;;;20.47;39.38
83512;BME280;73446;0.000;0.000;2023-11-21T03:11:38;98090.34;;;20.45;39.31
83512;BME280;73446;0.000;0.000;2023-11-21T03:14:22;98080.94;;;20.48;38.91
83512;BME280;73446;0.000;0.000;2023-11-21T03:17:06;98087.34;;;20.47;39.02
83512;BME280;73446;0.000;0.000;2023-11-21T03:19:50;98082.81;;;20.47;39.38
83512;BME280;73446;0.000;0.000;2023-11-21T03:22:35;98082.00;;;20.47;39.13
83512;BME280;73446;0.000;0.000;2023-11-21T03:25:19;98084.22;;;20.45;39.10
83512;BME280;73446;0.000;0.000;2023-11-21T03:28:04;98090.91;;;20.42;39.22
83512;BME280;73446;0.000;0.000;2023-11-21T03:30:48;98094.88;;;20.45;39.13
83512;BME280;73446;0.000;0.000;2023-11-21T03:33:32;98092.50;;;20.43;39.19
83512;BME280;73446;0.000;0.000;2023-11-21T03:36:16;98095.16;;;20.43;39.15
83512;BME280;73446;0.000;0.000;2023-11-21T03:39:01;98096.25;;;20.42;39.14
83512;BME280;73446;0.000;0.000;2023-11-21T03:41:46;98097.84;;;20.43;39.08
83512;BME280;73446;0.000;0.000;2023-11-21T03:44:30;98097.34;;;20.41;39.14
83512;BME280;73446;0.000;0.000;2023-11-21T03:47:14;98100.78;;;20.42;39.17
83512;BME280;73446;0.000;0.000;2023-11-21T03:49:57;98090.91;;;20.42;39.22
83512;BME280;73446;0.000;0.000;2023-11-21T03:52:41;98092.00;;;20.41;39.00
83512;BME280;73446;0.000;0.000;2023-11-21T03:55:26;98104.25;;;20.42;38.99
83512;BME280;73446;0.000;0.000;2023-11-21T03:58:10;98106.94;;;20.42;39.14
83512;BME280;73446;0.000;0.000;2023-11-21T04:00:53;98103.75;;;20.40;39.18
83512;BME280;73446;0.000;0.000;2023-11-21T04:03:37;98104.84;;;20.39;39.28
83512;BME280;73446;0.000;0.000;2023-11-21T04:06:24;98115.22;;;20.41;38.86
83512;BME280;73446;0.000;0.000;2023-11-21T04:09:08;98115.22;;;20.41;39.22
83512;BME280;73446;0.000;0.000;2023-11-21T04:11:52;98112.84;;;20.39;39.18
83512;BME280;73446;0.000;0.000;2023-11-21T04:14:36;98110.69;;;20.41;39.17
83512;BME280;73446;0.000;0.000;2023-11-21T04:17:21;98113.63;;;20.40;39.31
83512;BME280;73446;0.000;0.000;2023-11-21T04:20:05;98112.06;;;20.39;39.24
83512;BME280;73446;0.000;0.000;2023-11-21T04:22:52;98116.59;;;20.38;38.90
83512;BME280;73446;0.000;0.000;2023-11-21T04:25:36;98115.00;;;20.37;39.24
83512;BME280;73446;0.000;0.000;2023-11-21T04:28:20;98127.56;;;20.37;39.37
83512;BME280;73446;0.000;0.000;2023-11-21T04:31:04;98128.34;;;20.37;39.20
83512;BME280;73446;0.000;0.000;2023-11-21T04:33:48;98124.88;;;20.37;39.27
83512;BME280;73446;0.000;0.000;2023-11-21T04:36:32;98129.44;;;20.36;39.29
83512;BME280;73446;0.000;0.000;2023-11-21T04:39:16;98132.91;;;20.37;38.99
83512;BME280;73446;0.000;0.000;2023-11-21T04:42:00;98134.78;;;20.36;39.17
83512;BME280;73446;0.000;0.000;2023-11-21T04:44:44;98133.16;;;20.35;39.11
83512;BME280;73446;0.000;0.000;2023-11-21T04:47:28;98124.88;;;20.37;39.24
83512;BME280;73446;0.000;0.000;2023-11-21T04:50:13;98130.47;;;20.35;39.05
83512;BME280;73446;0.000;0.000;2023-11-21T04:52:57;98134.78;;;20.36;39.44
83512;BME280;73446;0.000;0.000;2023-11-21T04:55:41;98135.81;;;20.35;39.16
83512;BME280;73446;0.000;0.000;2023-11-21T04:58:25;98134.78;;;20.36;39.24
83512;BME280;73446;0.000;0.000;2023-11-21T05:01:10;98140.91;;;20.37;39.17
83512;BME280;73446;0.000;0.000;2023-11-21T05:03:54;98137.16;;;20.38;39.35
83512;BME280;73446;0.000;0.000;2023-11-21T05:06:38;98149.41;;;20.39;39.31
83512;BME280;73446;0.000;0.000;2023-11-21T05:09:22;98159.00;;;20.40;39.47
83512;BME280;73446;0.000;0.000;2023-11-21T05:12:06;98155.53;;;20.39;39.15
83512;BME280;73446;0.000;0.000;2023-11-21T05:14:51;98163.56;;;20.39;39.39
83512;BME280;73446;0.000;0.000;2023-11-21T05:17:36;98154.47;;;20.40;39.43
83512;BME280;73446;0.000;0.000;2023-11-21T05:20:20;98163.75;;;20.43;39.07
83512;BME280;73446;0.000;0.000;2023-11-21T05:23:05;98160.31;;;20.42;39.24
83512;BME280;73446;0.000;0.000;2023-11-21T05:25:48;98161.88;;;20.43;39.33
83512;BME280;73446;0.000;0.000;2023-11-21T05:28:32;98164.56;;;20.43;38.85
83512;BME280;73446;0.000;0.000;2023-11-21T05:31:16;98162.69;;;20.44;39.08
83512;BME280;73446;0.000;0.000;2023-11-21T05:34:01;98162.69;;;20.44;38.85
83512;BME280;73446;0.000;0.000;2023-11-21T05:36:45;98173.06;;;20.45;39.15
83512;BME280;73446;0.000;0.000;2023-11-21T05:39:29;98174.63;;;20.46;39.13
83512;BME280;73446;0.000;0.000;2023-11-21T05:42:13;98175.13;;;20.48;39.19
83512;BME280;73446;0.000;0.000;2023-11-21T05:44:57;98178.59;;;20.49;39.09
83512;BME280;73446;0.000;0.000;2023-11-21T05:47:54;98172.97;;;20.50;38.78
83512;BME280;73446;0.000;0.000;2023-11-21T05:50:39;98179.91;;;20.51;38.83
83512;BME280;73446;0.000;0.000;2023-11-21T05:53:23;98175.13;;;20.48;39.17
83512;BME280;73446;0.000;0.000;2023-11-21T05:56:07;98181.84;;;20.46;39.25
83512;BME280;73446;0.000;0.000;2023-11-21T05:58:51;98191.75;;;20.45;39.03
83512;BME280;73446;0.000;0.000;2023-11-21T06:01:36;98188.69;;;20.52;38.74
83512;BME280;73446;0.000;0.000;2023-11-21T06:04:22;98187.53;;;20.58;38.73
83512;BME280;73446;0.000;0.000;2023-11-21T06:07:08;98188.53;;;20.62;38.65
83512;BME280;73446;0.000;0.000;2023-11-21T06:09:52;98193.78;;;20.67;38.95
83512;BME280;73446;0.000;0.000;2023-11-21T06:12:36;98198.84;;;20.69;38.97
83512;BME280;73446;0.000;0.000;2023-11-21T06:15:20;98204.69;;;20.71;39.21
83512;BME280;73446;0.000;0.000;2023-11-21T06:18:06;98210.03;;;20.71;39.15
83512;BME280;73446;0.000;0.000;2023-11-21T06:20:53;98207.84;;;20.73;39.45
83512;BME280;73446;0.000;0.000;2023-11-21T06:23:38;98208.88;;;20.77;39.75
83512;BME280;73446;0.000;0.000;2023-11-21T06:26:22;98210.94;;;20.80;39.72
83512;BME280;73446;0.000;0.000;2023-11-21T06:29:06;98208.25;;;20.80;39.92
83512;BME280;73446;0.000;0.000;2023-11-21T06:31:50;98217.34;;;20.79;39.48
83512;BME280;73446;0.000;0.000;2023-11-21T06:34:34;98214.22;;;20.77;39.40
83512;BME280;73446;0.000;0.000;2023-11-21T06:37:18;98223.31;;;20.76;39.21
83512;BME280;73446;0.000;0.000;2023-11-21T06:40:05;98224.38;;;20.75;39.21
83512;BME280;73446;0.000;0.000;2023-11-21T06:42:49;98233.97;;;20.76;38.85
83512;BME280;73446;0.000;0.000;2023-11-21T06:45:34;98230.53;;;20.75;38.84
83512;BME280;73446;0.000;0.000;2023-11-21T06:48:18;98230.81;;;20.74;38.62
83512;BME280;73446;0.000;0.000;2023-11-21T06:51:02;98233.19;;;20.75;38.54
83512;BME280;73446;0.000;0.000;2023-11-21T06:53:46;98227.06;;;20.75;38.53
83512;BME280;73446;0.000;0.000;2023-11-21T06:56:30;98229.72;;;20.75;38.23
83512;BME280;73446;0.000;0.000;2023-11-21T06:59:14;98236.66;;;20.76;38.15
83512;BME280;73446;0.000;0.000;2023-11-21T07:01:58;98240.91;;;20.77;38.15
83512;BME280;73446;0.000;0.000;2023-11-21T07:04:42;98251.59;;;20.77;38.08
83512;BME280;73446;0.000;0.000;2023-11-21T07:07:28;98242.50;;;20.78;38.14
83512;BME280;73446;0.000;0.000;2023-11-21T07:10:12;98256.94;;;20.77;38.15
83512;BME280;73446;0.000;0.000;2023-11-21T07:12:56;98253.19;;;20.78;38.00
83512;BME280;73446;0.000;0.000;2023-11-21T07:15:40;98259.28;;;20.78;37.82
83512;BME280;73446;0.000;0.000;2023-11-21T07:18:24;98258.53;;;20.78;37.98
83512;BME280;73446;0.000;0.000;2023-11-21T07:21:09;98269.97;;;20.78;38.04
83512;BME280;73446;0.000;0.000;2023-11-21T07:23:55;98271.56;;;20.79;37.89
83512;BME280;73446;0.000;0.000;2023-11-21T07:26:39;98278.47;;;20.80;37.83
83512;BME280;73446;0.000;0.000;2023-11-21T07:29:24;98277.69;;;20.80;37.99
83512;BME280;73446;0.000;0.000;2023-11-21T07:32:09;98285.69;;;20.80;37.81
83512;BME280;73446;0.000;0.000;2023-11-21T07:34:54;98284.09;;;20.79;38.12
83512;BME280;73446;0.000;0.000;2023-11-21T07:37:39;98285.50;;;20.76;38.40
83512;BME280;73446;0.000;0.000;2023-11-21T07:40:23;98293.31;;;20.73;39.01
83512;BME280;73446;0.000;0.000;2023-11-21T07:43:07;98290.13;;;20.71;39.19
83512;BME280;73446;0.000;0.000;2023-11-21T07:45:51;98300.81;;;20.71;38.93
83512;BME280;73446;0.000;0.000;2023-11-21T07:48:35;98300.81;;;20.71;39.05
83512;BME280;73446;0.000;0.000;2023-11-21T07:51:20;98307.22;;;20.70;39.12
83512;BME280;73446;0.000;0.000;2023-11-21T07:54:04;98300.28;;;20.69;39.23
83512;BME280;73446;0.000;0.000;2023-11-21T07:56:49;98305.63;;;20.69;39.15
83512;BME280;73446;0.000;0.000;2023-11-21T07:59:33;98305.63;;;20.69;39.48
83512;BME280;73446;0.000;0.000;2023-11-21T08:02:17;98309.38;;;20.68;39.31
83512;BME280;73446;0.000;0.000;2023-11-21T08:05:01;98310.47;;;20.67;39.50
83512;BME280;73446;0.000;0.000;2023-11-21T08:07:45;98316.88;;;20.66;39.51
83512;BME280;73446;0.000;0.000;2023-11-21T08:10:29;98316.88;;;20.66;39.68
83512;BME280;73446;0.000;0.000;2023-11-21T08:13:14;98316.38;;;20.64;39.35
83512;BME280;73446;0.000;0.000;2023-11-21T08:16:01;98316.38;;;20.64;39.62
83512;BME280;73446;0.000;0.000;2023-11-21T08:18:47;98321.72;;;20.64;39.51
83512;BME280;73446;0.000;0.000;2023-11-21T08:21:31;98328.13;;;20.63;39.51
83512;BME280;73446;0.000;0.000;2023-11-21T08:24:15;98323.59;;;20.63;39.66
83512;BME280;73446;0.000;0.000;2023-11-21T08:27:00;98331.59;;;20.63;39.62
83512;BME280;73446;0.000;0.000;2023-11-21T08:29:44;98329.25;;;20.62;39.55
83512;BME280;73446;0.000;0.000;2023-11-21T08:32:28;98333.47;;;20.63;39.71
83512;BME280;73446;0.000;0.000;2023-11-21T08:35:14;98338.03;;;20.62;39.52
83512;BME280;73446;0.000;0.000;2023-11-21T08:37:59;98343.38;;;20.62;39.74
83512;BME280;73446;0.000;0.000;2023-11-21T08:40:43;98353.28;;;20.62;39.71
83512;BME280;73446;0.000;0.000;2023-11-21T08:43:28;98345.84;;;20.58;39.82
83512;BME280;73446;0.000;0.000;2023-11-21T08:46:12;98345.91;;;20.53;40.04
83512;BME280;73446;0.000;0.000;2023-11-21T08:48:56;98354.41;;;20.55;40.04
83512;BME280;73446;0.000;0.000;2023-11-21T08:51:39;98351.19;;;20.58;39.69
83512;BME280;73446;0.000;0.000;2023-11-21T08:54:23;98355.44;;;20.59;39.36
83512;BME280;73446;0.000;0.000;2023-11-21T08:57:09;98355.63;;;20.63;40.41
83512;BME280;73446;0.000;0.000;2023-11-21T08:59:53;98352.97;;;20.63;40.36
83512;BME280;73446;0.000;0.000;2023-11-21T09:02:39;98356.44;;;20.64;40.01
83512;BME280;73446;0.000;0.000;2023-11-21T09:05:25;98362.56;;;20.64;40.41
83512;BME280;73446;0.000;0.000;2023-11-21T09:08:09;98368.69;;;20.65;41.06
83512;BME280;73446;0.000;0.000;2023-11-21T09:10:56;98375.34;;;20.67;40.51
83512;BME280;73446;0.000;0.000;2023-11-21T09:13:40;98368.91;;;20.68;40.56
83512;BME280;73446;0.000;0.000;2023-11-21T09:16:24;98370.78;;;20.68;40.34
83512;BME280;73446;0.000;0.000;2023-11-21T09:19:08;98371.31;;;20.70;40.39
83512;BME280;73446;0.000;0.000;2023-11-21T09:21:52;98380.09;;;20.70;40.09
83512;BME280;73446;0.000;0.000;2023-11-21T09:24:36;98385.16;;;20.72;40.21
83512;BME280;73446;0.000;0.000;2023-11-21T09:27:26;98396.34;;;20.74;40.03
83512;BME280;73446;0.000;0.000;2023-11-21T09:30:10;98403.28;;;20.75;39.89
83512;BME280;73446;0.000;0.000;2023-11-21T09:32:54;98398.75;;;20.75;39.96
83512;BME280;73446;0.000;0.000;2023-11-21T09:35:39;98399.25;;;20.77;39.60
83512;BME280;73446;0.000;0.000;2023-11-21T09:38:23;98407.56;;;20.76;39.65
83512;BME280;73446;0.000;0.000;2023-11-21T09:41:14;98409.44;;;20.75;39.96
83512;BME280;73446;0.000;0.000;2023-11-21T09:44:02;98412.88;;;20.76;39.97
83512;BME280;73446;0.000;0.000;2023-11-21T09:46:51;98410.22;;;20.76;39.52
83512;BME280;73446;0.000;0.000;2023-11-21T09:49:38;98416.34;;;20.76;39.69
83512;BME280;73446;0.000;0.000;2023-11-21T09:52:25;98420.91;;;20.76;39.72
83512;BME280;73446;0.000;0.000;2023-11-21T09:55:10;98424.66;;;20.75;39.78
83512;BME280;73446;0.000;0.000;2023-11-21T09:57:59;98423.84;;;20.74;39.85
83512;BME280;73446;0.000;0.000;2023-11-21T10:00:46;98428.69;;;20.72;40.20
83512;BME280;73446;0.000;0.000;2023-11-21T10:03:30;98428.97;;;20.71;40.15
83512;BME280;73446;0.000;0.000;2023-11-21T10:06:15;98428.16;;;20.70;40.31
83512;BME280;73446;0.000;0.000;2023-11-21T10:09:01;98425.78;;;20.69;40.67
83512;BME280;73446;0.000;0.000;2023-11-21T10:11:49;98422.31;;;20.68;40.40
83512;BME280;73446;0.000;0.000;2023-11-21T10:14:35;98427.94;;;20.67;40.69
83512;BME280;73446;0.000;0.000;2023-11-21T10:17:20;98423.41;;;20.67;40.86
83512;BME280;73446;0.000;0.000;2023-11-21T10:20:11;98426.34;;;20.66;40.55
83512;BME280;73446;0.000;0.000;2023-11-21T10:22:56;98422.09;;;20.65;40.26
83512;BME280;73446;0.000;0.000;2023-11-21T10:25:40;98426.34;;;20.66;40.69
83512;BME280;73446;0.000;0.000;2023-11-21T10:28:25;98423.97;;;20.64;40.93
83512;BME280;73446;0.000;0.000;2023-11-21T10:31:08;98420.03;;;20.62;41.76
83512;BME280;73446;0.000;0.000;2023-11-21T10:33:53;98423.97;;;20.64;41.90
83512;BME280;73446;0.000;0.000;2023-11-21T10:36:36;98430.69;;;20.62;41.50
83512;BME280;73446;0.000;0.000;2023-11-21T10:39:21;98429.09;;;20.60;41.41
83512;BME280;73446;0.000;0.000;2023-11-21T10:42:08;98430.97;;;20.60;41.13
83512;BME280;73446;0.000;0.000;2023-11-21T10:44:54;98436.03;;;20.62;41.27
83512;BME280;73446;0.000;0.000;2023-11-21T10:47:39;98436.81;;;20.62;41.98
83512;BME280;73446;0.000;0.000;2023-11-21T10:50:24;98430.38;;;20.63;42.39
83512;BME280;73446;0.000;0.000;2023-11-21T10:53:09;98445.59;;;20.63;42.10
83512;BME280;73446;0.000;0.000;2023-11-21T10:56:10;98440.25;;;20.63;42.23
83512;BME280;73446;0.000;0.000;2023-11-21T10:59:01;98441.38;;;20.62;41.89
83512;BME280;73446;0.000;0.000;2023-11-21T11:01:45;98446.72;;;20.62;42.12
83512;BME280;73446;0.000;0.000;2023-11-21T11:04:30;98439.00;;;20.60;41.84
83512;BME280;73446;0.000;0.000;2023-11-21T11:07:18;98445.13;;;20.60;41.67
83512;BME280;73446;0.000;0.000;2023-11-21T11:10:05;98452.06;;;20.62;41.66
83512;BME280;73446;0.000;0.000;2023-11-21T11:12:53;98452.81;;;20.62;41.41
83512;BME280;73446;0.000;0.000;2023-11-21T11:15:37;98456.00;;;20.64;41.23
83512;BME280;73446;0.000;0.000;2023-11-21T11:18:21;98455.22;;;20.64;41.11
83512;BME280;73446;0.000;0.000;2023-11-21T11:24:42;98458.41;;;20.66;40.65
83512;BME280;73446;0.000;0.000;2023-11-21T11:30:47;98461.84;;;20.66;40.42
83512;BME280;73446;0.000;0.000;2023-11-21T11:33:57;98462.13;;;20.65;40.18
83512;BME280;73446;0.000;0.000;2023-11-21T11:36:59;98459.19;;;20.66;40.35
83512;BME280;73446;0.000;0.000;2023-11-21T11:39:43;98459.47;;;20.65;40.23
83512;BME280;73446;0.000;0.000;2023-11-21T11:42:28;98459.47;;;20.65;40.37
83512;BME280;73446;0.000;0.000;2023-11-21T11:45:18;98456.00;;;20.64;40.34
83512;BME280;73446;0.000;0.000;2023-11-21T11:48:05;98467.47;;;20.65;40.27
83512;BME280;73446;0.000;0.000;2023-11-21T11:51:03;98461.34;;;20.64;40.04
83512;BME280;73446;0.000;0.000;2023-11-21T11:53:47;98469.63;;;20.63;40.47
83512;BME280;73446;0.000;0.000;2023-11-21T11:56:32;98466.16;;;20.62;40.48
83512;BME280;73446;0.000;0.000;2023-11-21T11:59:19;98462.72;;;20.62;40.52
83512;BME280;73446;0.000;0.000;2023-11-21T12:02:04;98469.94;;;20.61;40.30
83512;BME280;73446;0.000;0.000;2023-11-21T12:04:48;98453.94;;;20.61;40.65
83512;BME280;73446;0.000;0.000;2023-11-21T12:10:34;98467.38;;;20.51;40.56
83512;BME280;73446;0.000;0.000;2023-11-21T12:13:18;98468.16;;;20.51;40.60
83512;BME280;73446;0.000;0.000;2023-11-21T12:16:03;98466.25;;;20.57;40.30
83512;BME280;73446;0.000;0.000;2023-11-21T12:18:47;98472.09;;;20.59;43.78
83512;BME280;73446;0.000;0.000;2023-11-21T12:21:31;98471.81;;;20.60;46.88
83512;BME280;73446;0.000;0.000;2023-11-21T12:24:16;98471.50;;;20.62;48.25
83512;BME280;73446;0.000;0.000;2023-11-21T12:27:00;98476.56;;;20.64;47.23
83512;BME280;73446;0.000;0.000;2023-11-21T12:29:45;98469.63;;;20.63;46.81
83512;BME280;73446;0.000;0.000;2023-11-21T12:32:29;98480.31;;;20.63;46.41
83512;BME280;73446;0.000;0.000;2023-11-21T12:35:13;98481.91;;;20.64;47.06
83512;BME280;73446;0.000;0.000;2023-11-21T12:37:57;98477.06;;;20.66;46.67
83512;BME280;73446;0.000;0.000;2023-11-21T12:40:41;98488.03;;;20.64;46.07
83512;BME280;73446;0.000;0.000;2023-11-21T12:43:25;98483.78;;;20.63;45.92
83512;BME280;73446;0.000;0.000;2023-11-21T12:46:13;98494.78;;;20.62;45.66
83512;BME280;73446;0.000;0.000;2023-11-21T12:48:58;98491.00;;;20.63;45.29
83512;BME280;73446;0.000;0.000;2023-11-21T12:51:50;98494.47;;;20.63;45.00
83512;BME280;73446;0.000;0.000;2023-11-21T12:54:37;98493.97;;;20.61;44.92
83512;BME280;73446;0.000;0.000;2023-11-21T12:57:25;98503.06;;;20.60;44.92
83512;BME280;73446;0.000;0.000;2023-11-21T13:00:12;98499.00;;;20.63;44.71
83512;BME280;73446;0.000;0.000;2023-11-21T13:03:09;98497.94;;;20.64;45.29
83512;BME280;73446;0.000;0.000;2023-11-21T13:05:54;98499.81;;;20.63;45.13
83512;BME280;73446;0.000;0.000;2023-11-21T13:08:38;98504.34;;;20.63;45.03
83512;BME280;73446;0.000;0.000;2023-11-21T13:11:22;98503.53;;;20.62;44.55
83512;BME280;73446;0.000;0.000;2023-11-21T13:14:06;98514.75;;;20.64;44.50
83512;BME280;73446;0.000;0.000;2023-11-21T13:16:51;98514.75;;;20.64;44.54
83512;BME280;73446;0.000;0.000;2023-11-21T13:19:35;98512.06;;;20.64;44.25
83512;BME280;73446;0.000;0.000;2023-11-21T13:22:19;98514.75;;;20.64;44.47
83512;BME280;73446;0.000;0.000;2023-11-21T13:25:04;98518.72;;;20.67;44.29
83512;BME280;73446;0.000;0.000;2023-11-21T13:27:51;98517.13;;;20.66;44.45
83512;BME280;73446;0.000;0.000;2023-11-21T13:30:35;98523.00;;;20.68;44.49
83512;BME280;73446;0.000;0.000;2023-11-21T13:33:19;98524.84;;;20.67;44.44
83512;BME280;73446;0.000;0.000;2023-11-21T13:36:06;98531.00;;;20.68;44.49
83512;BME280;73446;0.000;0.000;2023-11-21T13:38:53;98531.00;;;20.68;44.41
83512;BME280;73446;0.000;0.000;2023-11-21T13:41:37;98536.84;;;20.70;44.21
83512;BME280;73446;0.000;0.000;2023-11-21T13:44:22;98535.78;;;20.71;44.47
83512;BME280;73446;0.000;0.000;2023-11-21T13:47:18;98537.38;;;20.72;44.57
83512;BME280;73446;0.000;0.000;2023-11-21T13:50:02;98536.56;;;20.71;44.26
83512;BME280;73446;0.000;0.000;2023-11-21T13:52:47;98537.38;;;20.72;44.22
83512;BME280;73446;0.000;0.000;2023-11-21T13:55:31;98538.97;;;20.73;44.20
83512;BME280;73446;0.000;0.000;2023-11-21T13:58:16;98543.22;;;20.74;44.14
83512;BME280;73446;0.000;0.000;2023-11-21T14:01:07;98542.72;;;20.72;44.12
83512;BME280;73446;0.000;0.000;2023-11-21T14:04:08;98541.13;;;20.71;43.94
83512;BME280;73446;0.000;0.000;2023-11-21T14:07:02;98542.72;;;20.72;43.81
83512;BME280;73446;0.000;0.000;2023-11-21T14:10:04;98555.25;;;20.71;44.11
83512;BME280;73446;0.000;0.000;2023-11-21T14:12:56;98557.94;;;20.71;43.69
83512;BME280;73446;0.000;0.000;2023-11-21T14:15:42;98549.63;;;20.73;43.71
83512;BME280;73446;0.000;0.000;2023-11-21T14:18:32;98561.56;;;20.80;43.54
83512;BME280;73446;0.000;0.000;2023-11-21T14:21:22;98565.81;;;20.81;43.45
83512;BME280;73446;0.000;0.000;2023-11-21T14:24:06;98564.50;;;20.79;43.54
83512;BME280;73446;0.000;0.000;2023-11-21T14:26:53;98573.13;;;20.76;43.58
83512;BME280;73446;0.000;0.000;2023-11-21T14:29:37;98575.53;;;20.72;43.62
83512;BME280;73446;0.000;0.000;2023-11-21T14:32:23;98584.63;;;20.71;43.71
83512;BME280;73446;0.000;0.000;2023-11-21T14:35:07;98598.00;;;20.71;43.60
83512;BME280;73446;0.000;0.000;2023-11-21T14:37:53;98595.31;;;20.71;43.63
83512;BME280;73446;0.000;0.000;2023-11-21T14:40:37;98594.53;;;20.71;43.32
83512;BME280;73446;0.000;0.000;2023-11-21T14:43:21;98608.09;;;20.74;43.35
83512;BME280;73446;0.000;0.000;2023-11-21T14:46:05;98609.19;;;20.73;43.29
83512;BME280;73446;0.000;0.000;2023-11-21T14:48:53;98607.81;;;20.76;43.58
83512;BME280;73446;0.000;0.000;2023-11-21T14:51:53;98610.22;;;20.77;43.27
83512;BME280;73446;0.000;0.000;2023-11-21T14:54:43;98619.03;;;20.78;43.18
83512;BME280;73446;0.000;0.000;2023-11-21T14:57:30;98621.69;;;20.78;43.35